KETN/ETN METAR and TAF weather

Enter ICAO airport designator
Station Type Date Time Source
KETN METAR 2020/02/26 09:55 UTC NOAA

KETN 260955Z AUTO 33017G25KT 10SM OVC030 01/M04 A3037 RMK AO2 T00151044


Station Type Date Time Source
KETN Decoded METAR 2020/02/26 09:55 UTC NOAA

Station name not available
Feb 26, 2020 - 04:55 AM EST / 2020.02.26 0955 UTC
Wind: from the NNW (330 degrees) at 20 MPH (17 KT) gusting to 29 MPH (25 KT):0
Visibility: 10 mile(s):0
Sky conditions: overcast
Temperature: 34.7 F (1.5 C)
Windchill: 23 F (-5 C):1
Dew Point: 24.1 F (-4.4 C)
Relative Humidity: 64%
Pressure (altimeter): 30.37 in. Hg (1028 hPa)
ob: KETN 260955Z AUTO 33017G25KT 10SM OVC030 01/M04 A3037 RMK AO2 T00151044
cycle: 10

Station Type Date Time Source
KETN TAF UTC NOAA

Error!

Example: see airport list